Terminal Aerodrome Forecast
Issued by NWS

Home | Current Version | Previous Version | Text Only | Print | Product List | Glossary On
Versions: 1 2 3 4 5 6 7 8 9 10 11 12 13 14 15 16
000
FTUS44 KLIX 290700 AAB
TAFMCB
TAF AMD
KMCB 290700Z 2907/3006 09006KT P6SM SCT025
     FM291500 15007KT P6SM SCT250
     FM291900 18010KT P6SM SCT250
     FM300100 19005KT P6SM FEW250=

USA.gov is the U.S. government's official web portal to all federal, state and local government web resources and services.